Time;durP1;ratioP1;P1;durP2;ratioP2;P2;SDS_P1;SDS_P2;PMS_P1;PMS_P2;Temp;Humidity;BMP_temperature;BMP_pressure;BME280_temperature;BME280_humidity;BME280_pressure;Samples;Min_cycle;Max_cycle;Signal;HPM_P1;HPM_P2
2021/06/25 00:01:01;;;;;;;6.22;4.70;;;;;;;16.46;100.00;99205.13;5099620;28;20036;-81
2021/06/25 00:03:30;;;;;;;7.18;4.80;;;;;;;16.36;100.00;99180.09;5101191;28;20134;-81
2021/06/25 00:06:00;;;;;;;7.10;4.60;;;;;;;16.40;100.00;99203.28;5107480;28;20181;-81
2021/06/25 00:08:26;;;;;;;4.93;4.22;;;;;;;16.27;100.00;99195.97;5102311;28;20048;-81
2021/06/25 00:10:53;;;;;;;5.82;4.68;;;;;;;16.22;100.00;99199.38;5090976;28;20056;-82
2021/06/25 00:13:20;;;;;;;7.05;4.65;;;;;;;16.35;100.00;99198.47;5087250;28;20063;-81
2021/06/25 00:15:47;;;;;;;9.57;5.22;;;;;;;16.50;100.00;99203.63;5092417;28;20407;-81
2021/06/25 00:18:14;;;;;;;5.63;4.57;;;;;;;16.56;99.94;99212.84;5093117;28;20044;-80
2021/06/25 00:20:43;;;;;;;5.95;5.35;;;;;;;16.46;99.49;99205.97;5093003;28;20052;-80
2021/06/25 00:23:09;;;;;;;7.65;5.45;;;;;;;16.44;100.00;99188.06;5100331;28;20036;-80
2021/06/25 00:25:36;;;;;;;7.60;4.97;;;;;;;16.30;100.00;99189.22;5099793;28;20055;-81
2021/06/25 00:28:03;;;;;;;4.78;4.28;;;;;;;16.31;100.00;99207.34;5091062;28;20490;-80
2021/06/25 00:30:30;;;;;;;5.47;4.78;;;;;;;16.19;100.00;99188.03;5093466;28;20043;-80
2021/06/25 00:32:57;;;;;;;5.72;4.95;;;;;;;16.24;100.00;99186.31;5104918;28;20040;-80
2021/06/25 00:35:24;;;;;;;6.72;5.07;;;;;;;16.22;100.00;99187.56;5100716;28;20099;-80
2021/06/25 00:37:52;;;;;;;6.35;4.75;;;;;;;16.24;100.00;99191.78;5098360;28;20487;-80
2021/06/25 00:40:19;;;;;;;6.57;4.50;;;;;;;16.34;100.00;99198.69;5095609;28;20043;-80
2021/06/25 00:42:46;;;;;;;7.18;5.13;;;;;;;16.31;100.00;99196.38;5094491;28;20054;-80
2021/06/25 00:45:15;;;;;;;5.13;4.60;;;;;;;16.30;100.00;99205.66;5093214;28;20483;-81
2021/06/25 00:47:45;;;;;;;8.43;5.22;;;;;;;16.27;100.00;99201.47;5107094;28;20465;-81
2021/06/25 00:50:13;;;;;;;7.72;4.57;;;;;;;16.19;100.00;99191.59;5102840;28;20051;-79
2021/06/25 00:52:40;;;;;;;9.32;5.03;;;;;;;16.16;100.00;99182.97;5098950;28;20523;-81
2021/06/25 00:55:10;;;;;;;5.68;4.88;;;;;;;16.20;100.00;99189.69;5107382;28;20040;-79
2021/06/25 00:57:37;;;;;;;6.10;5.30;;;;;;;16.22;100.00;99199.38;5100472;28;20055;-79
2021/06/25 01:00:06;;;;;;;8.38;5.22;;;;;;;16.27;100.00;99201.47;5103283;28;20056;-81
2021/06/25 01:02:33;;;;;;;11.07;5.00;;;;;;;16.13;100.00;99184.25;5091355;28;20044;-80
2021/06/25 01:05:00;;;;;;;9.95;5.10;;;;;;;16.14;100.00;99185.94;5105401;28;20414;-81
2021/06/25 01:07:30;;;;;;;6.20;4.97;;;;;;;16.10;100.00;99193.75;5101503;28;20052;-80
2021/06/25 01:09:58;;;;;;;7.97;5.60;;;;;;;16.08;100.00;99184.91;5104247;28;20048;-80
2021/06/25 01:12:27;;;;;;;6.13;5.15;;;;;;;16.13;100.00;99195.22;5112073;28;20051;-80
2021/06/25 01:14:54;;;;;;;6.80;4.70;;;;;;;16.02;100.00;99190.44;5106874;28;20079;-80
2021/06/25 01:17:31;;;;;;;8.10;5.93;;;;;;;16.07;100.00;99179.66;5111415;28;20414;-80
2021/06/25 01:20:00;;;;;;;8.50;6.15;;;;;;;16.06;100.00;99192.53;5101976;28;20076;-80
2021/06/25 01:22:34;;;;;;;10.38;5.90;;;;;;;16.23;100.00;99201.06;5104111;28;20126;-80
2021/06/25 01:25:04;;;;;;;7.60;5.90;;;;;;;16.08;100.00;99190.41;5109685;28;20312;-80
2021/06/25 01:27:32;;;;;;;7.15;5.63;;;;;;;16.07;100.00;99176.91;5109638;28;20067;-80
2021/06/25 01:29:59;;;;;;;10.02;6.13;;;;;;;16.20;100.00;99192.41;5108234;28;20039;-80
2021/06/25 01:32:26;;;;;;;8.18;5.30;;;;;;;16.12;100.00;99188.03;5111975;28;20044;-81
2021/06/25 01:34:53;;;;;;;10.65;5.63;;;;;;;16.27;100.00;99195.97;5106345;28;20040;-80
2021/06/25 01:37:20;;;;;;;8.52;5.93;;;;;;;16.12;100.00;99182.56;5080447;28;20508;-80
2021/06/25 01:39:51;;;;;;;8.35;5.75;;;;;;;16.27;100.00;99195.97;5095962;28;20051;-81
2021/06/25 01:42:18;;;;;;;10.18;6.10;;;;;;;16.05;100.00;99165.34;5097417;28;20055;-80
2021/06/25 01:44:46;;;;;;;7.15;5.60;;;;;;;16.12;100.00;99184.47;5092494;28;20389;-80
2021/06/25 01:47:13;;;;;;;8.35;6.15;;;;;;;16.22;100.00;99193.06;5095465;28;20438;-80
2021/06/25 01:49:40;;;;;;;7.90;5.82;;;;;;;16.13;100.00;99183.41;5097818;28;20391;-80
2021/06/25 01:52:08;;;;;;;5.95;5.13;;;;;;;16.14;100.00;99188.69;5097628;28;20036;-80
2021/06/25 01:54:34;;;;;;;6.45;5.28;;;;;;;16.29;100.00;99191.13;5089529;28;20047;-81
2021/06/25 01:57:03;;;;;;;9.88;5.60;;;;;;;16.17;100.00;99176.41;5091288;28;20232;-81
2021/06/25 01:59:30;;;;;;;9.52;5.45;;;;;;;16.06;100.00;99164.25;5102974;28;20058;-80
2021/06/25 02:01:56;;;;;;;6.57;4.97;;;;;;;16.09;100.00;99177.50;5092763;28;20056;-80
2021/06/25 02:04:23;;;;;;;6.35;4.82;;;;;;;16.18;100.00;99184.41;5098343;28;20426;-80
2021/06/25 02:06:50;;;;;;;5.75;5.05;;;;;;;16.25;100.00;99179.72;5094631;28;20475;-80
2021/06/25 02:09:17;;;;;;;8.32;4.80;;;;;;;16.23;100.00;99175.56;5093599;28;20036;-80
2021/06/25 02:11:44;;;;;;;8.10;4.75;;;;;;;16.26;100.00;99170.44;5091481;28;20060;-80
2021/06/25 02:14:12;;;;;;;8.07;5.00;;;;;;;16.15;100.00;99168.41;5090634;28;20051;-79
2021/06/25 02:16:39;;;;;;;8.52;5.38;;;;;;;16.17;100.00;99177.28;5072500;28;20071;-81
2021/06/25 02:19:06;;;;;;;6.53;4.15;;;;;;;16.28;99.95;99187.50;5101211;28;20050;-81
2021/06/25 02:21:33;;;;;;;6.18;4.78;;;;;;;16.24;99.81;99196.41;5102324;28;20048;-81
2021/06/25 02:24:00;;;;;;;8.98;4.80;;;;;;;15.98;100.00;99190.03;5096675;28;20058;-81
2021/06/25 02:26:27;;;;;;;5.47;4.03;;;;;;;15.99;100.00;99196.34;5099512;28;20048;-81
2021/06/25 02:28:54;;;;;;;4.28;3.53;;;;;;;15.96;100.00;99180.34;5108889;28;20138;-81
2021/06/25 02:31:23;;;;;;;6.95;3.03;;;;;;;15.96;100.00;99196.78;5097697;28;20047;-81
2021/06/25 02:33:50;;;;;;;3.58;3.10;;;;;;;15.82;100.00;99171.34;5101721;28;20513;-81
2021/06/25 02:36:17;;;;;;;3.17;2.88;;;;;;;15.91;100.00;99187.34;5096202;28;20052;-81
2021/06/25 02:38:43;;;;;;;5.32;2.55;;;;;;;15.75;100.00;99182.31;5112760;28;20039;-81
2021/06/25 02:41:10;;;;;;;7.25;2.72;;;;;;;15.67;100.00;99172.47;5113861;28;20054;-82
2021/06/25 02:43:37;;;;;;;3.13;2.55;;;;;;;15.69;100.00;99167.59;5105004;28;20403;-81
2021/06/25 02:46:04;;;;;;;5.03;2.80;;;;;;;15.67;100.00;99171.59;5114037;28;20091;-81
2021/06/25 02:48:32;;;;;;;3.85;2.65;;;;;;;15.81;100.00;99188.88;5100156;28;20081;-81
2021/06/25 02:50:59;;;;;;;8.18;2.90;;;;;;;15.76;100.00;99178.50;5100127;27;20055;-81
2021/06/25 02:53:26;;;;;;;5.75;2.55;;;;;;;15.71;100.00;99175.59;5100788;28;20488;-81
2021/06/25 02:55:56;;;;;;;3.45;2.85;;;;;;;15.62;100.00;99163.22;5103647;28;20403;-81
2021/06/25 02:58:24;;;;;;;3.33;2.90;;;;;;;15.65;100.00;99157.28;5096568;28;20054;-81
2021/06/25 03:00:52;;;;;;;4.30;2.72;;;;;;;15.67;100.00;99179.81;5100878;28;20059;-81
2021/06/25 03:03:21;;;;;;;5.53;3.05;;;;;;;15.63;100.00;99178.59;5094428;28;20052;-81
2021/06/25 03:05:49;;;;;;;4.95;3.78;;;;;;;15.69;100.00;99181.28;5096616;28;20047;-80
2021/06/25 03:08:16;;;;;;;3.28;2.78;;;;;;;15.65;100.00;99174.56;5113026;28;20047;-80
2021/06/25 03:10:46;;;;;;;3.90;3.03;;;;;;;15.69;100.00;99173.06;5114641;28;20044;-81
2021/06/25 03:13:13;;;;;;;4.25;3.22;;;;;;;15.72;100.00;99174.53;5114409;28;20101;-80
2021/06/25 03:15:40;;;;;;;3.67;3.22;;;;;;;15.56;100.00;99157.53;5094613;28;20051;-81
2021/06/25 03:18:07;;;;;;;3.83;3.35;;;;;;;15.62;100.00;99179.66;5099472;28;20048;-81
2021/06/25 03:20:34;;;;;;;6.20;3.65;;;;;;;15.61;100.00;99167.00;5078567;28;20051;-81
2021/06/25 03:23:02;;;;;;;3.95;3.30;;;;;;;15.63;100.00;99173.94;5112190;28;20055;-81
2021/06/25 03:25:30;;;;;;;10.18;3.97;;;;;;;15.48;100.00;99178.88;5097100;28;20058;-81
2021/06/25 03:27:57;;;;;;;4.07;3.67;;;;;;;15.43;100.00;99176.78;5095731;28;20471;-81
2021/06/25 03:30:24;;;;;;;3.85;3.30;;;;;;;15.34;100.00;99159.75;5097768;28;20369;-81
2021/06/25 03:32:51;;;;;;;5.47;3.53;;;;;;;15.47;100.00;99172.53;5094103;28;20426;-81
2021/06/25 03:35:18;;;;;;;5.68;3.25;;;;;;;15.52;100.00;99175.47;5098914;28;20043;-82
2021/06/25 03:37:45;;;;;;;6.72;4.28;;;;;;;15.52;100.00;99161.78;5102149;28;20070;-82
2021/06/25 03:40:18;;;;;;;7.60;4.53;;;;;;;15.57;100.00;99180.31;5105964;28;20043;-81
2021/06/25 03:42:45;;;;;;;8.50;4.35;;;;;;;15.61;100.00;99180.69;5113923;28;20402;-81
2021/06/25 03:45:14;;;;;;;8.50;4.75;;;;;;;15.68;100.00;99174.13;5108336;28;20039;-82
2021/06/25 03:47:42;;;;;;;9.50;4.10;;;;;;;15.54;100.00;99158.81;5100685;28;20044;-81
2021/06/25 03:50:16;;;;;;;5.13;4.28;;;;;;;15.66;100.00;99187.22;5096510;28;20054;-81
2021/06/25 03:52:43;;;;;;;12.30;3.97;;;;;;;15.69;100.00;99177.72;5114313;28;20403;-81
2021/06/25 03:55:12;;;;;;;5.45;3.30;;;;;;;15.58;100.00;99160.03;5101365;28;20531;-82
2021/06/25 03:57:41;;;;;;;34.65;6.93;;;;;;;15.53;100.00;99174.41;5114188;28;20052;-83
2021/06/25 04:00:12;;;;;;;3.92;3.50;;;;;;;15.49;100.00;99169.56;5112618;28;20052;-83
2021/06/25 04:02:39;;;;;;;4.35;3.72;;;;;;;15.52;100.00;99167.25;5104964;28;20063;-82
2021/06/25 04:05:09;;;;;;;4.55;3.53;;;;;;;15.48;100.00;99174.22;5084464;28;20546;-81
2021/06/25 04:07:59;;;;;;;4.80;4.20;;;;;;;15.46;100.00;99159.03;5088142;28;20044;-82
2021/06/25 04:10:26;;;;;;;7.28;3.88;;;;;;;15.52;100.00;99180.09;5062719;28;20048;-83
2021/06/25 04:12:57;;;;;;;10.32;3.90;;;;;;;15.56;100.00;99189.56;5098312;28;20082;-83
2021/06/25 04:15:26;;;;;;;7.68;4.97;;;;;;;15.60;100.00;99182.59;5073609;28;20455;-83
2021/06/25 04:17:53;;;;;;;5.03;4.07;;;;;;;15.59;100.00;99191.88;5089899;28;20130;-83
2021/06/25 04:20:21;;;;;;;3.92;3.10;;;;;;;15.48;100.00;99171.47;5097035;28;20047;-83
2021/06/25 04:22:47;;;;;;;5.10;2.65;;;;;;;15.43;100.00;99162.22;5090701;28;20217;-83
2021/06/25 04:25:15;;;;;;;7.53;3.42;;;;;;;15.37;100.00;99164.78;5112787;28;20047;-83
2021/06/25 04:27:42;;;;;;;5.07;3.17;;;;;;;15.43;100.00;99164.97;5112744;28;20054;-83
2021/06/25 04:30:18;;;;;;;5.15;2.95;;;;;;;15.36;100.00;99170.47;5085597;28;20067;-83
2021/06/25 04:32:47;;;;;;;3.05;2.78;;;;;;;15.54;100.00;99194.44;5101540;28;20043;-83
2021/06/25 04:35:16;;;;;;;3.58;3.00;;;;;;;15.54;100.00;99187.03;5111237;28;20055;-82
2021/06/25 04:37:43;;;;;;;3.77;3.30;;;;;;;15.63;100.00;99189.56;5088880;28;20079;-83
2021/06/25 04:40:11;;;;;;;4.65;3.40;;;;;;;15.67;100.00;99175.19;5094503;28;20055;-83
2021/06/25 04:42:39;;;;;;;6.32;3.17;;;;;;;15.67;100.00;99174.34;5099710;28;20073;-83
2021/06/25 04:45:07;;;;;;;3.65;2.88;;;;;;;15.71;100.00;99175.59;5099411;28;20052;-83
2021/06/25 04:47:36;;;;;;;3.55;3.08;;;;;;;15.73;100.00;99187.16;5093828;28;20203;-83
2021/06/25 04:50:04;;;;;;;2.85;2.55;;;;;;;15.62;100.00;99177.75;5092955;28;20052;-83
2021/06/25 04:52:31;;;;;;;4.38;2.75;;;;;;;15.68;100.00;99173.28;5098297;28;20138;-83
2021/06/25 04:54:58;;;;;;;3.15;2.70;;;;;;;15.71;100.00;99172.84;5097024;28;20079;-83
2021/06/25 04:57:25;;;;;;;4.40;2.67;;;;;;;15.70;100.00;99172.03;5110586;28;20073;-83
2021/06/25 04:59:52;;;;;;;5.15;3.17;;;;;;;15.68;100.00;99163.16;5113082;28;20052;-83
2021/06/25 05:02:19;;;;;;;7.05;3.58;;;;;;;15.79;100.00;99180.00;5102311;28;20044;-83
2021/06/25 05:04:47;;;;;;;5.50;3.90;;;;;;;15.73;100.00;99174.31;5096006;28;20040;-83
2021/06/25 05:07:14;;;;;;;4.32;3.10;;;;;;;15.84;100.00;99189.28;5110545;28;20046;-84
2021/06/25 05:09:41;;;;;;;7.18;3.30;;;;;;;15.74;100.00;99166.94;5094644;28;20052;-84
2021/06/25 05:12:09;;;;;;;4.10;3.33;;;;;;;15.71;100.00;99164.63;5093065;28;20054;-84
2021/06/25 05:14:36;;;;;;;4.38;3.30;;;;;;;15.79;100.00;99186.31;5092576;28;20055;-83
2021/06/25 05:17:03;;;;;;;7.65;3.70;;;;;;;15.68;100.00;99160.41;5091814;28;20044;-83
2021/06/25 05:19:32;;;;;;;7.20;3.70;;;;;;;15.81;100.00;99169.69;5097461;28;20131;-83
2021/06/25 05:22:07;;;;;;;4.78;3.50;;;;;;;15.85;100.00;99177.25;5092339;28;20124;-83
2021/06/25 05:24:34;;;;;;;4.30;3.53;;;;;;;15.88;100.00;99185.03;5099369;28;20483;-82
2021/06/25 05:27:01;;;;;;;4.13;3.55;;;;;;;15.91;100.00;99157.19;5071876;28;20052;-83
2021/06/25 05:29:28;;;;;;;6.43;3.50;;;;;;;15.86;100.00;99183.56;5081955;28;20052;-82
2021/06/25 05:31:55;;;;;;;5.85;3.60;;;;;;;15.80;100.00;99179.78;5110713;28;20483;-82
2021/06/25 05:34:22;;;;;;;4.38;3.72;;;;;;;15.83;100.00;99179.34;5110235;28;20048;-82
2021/06/25 05:36:51;;;;;;;3.85;3.30;;;;;;;15.85;100.00;99180.00;5111530;28;20044;-82
2021/06/25 05:39:21;;;;;;;3.30;3.00;;;;;;;15.72;100.00;99171.81;5110610;28;20048;-82
2021/06/25 05:41:49;;;;;;;4.05;3.47;;;;;;;15.78;100.00;99178.31;5104205;28;20052;-83
2021/06/25 05:44:15;;;;;;;4.50;3.60;;;;;;;15.77;100.00;99176.63;5101529;28;20131;-83
2021/06/25 05:46:46;;;;;;;4.28;3.55;;;;;;;15.85;100.00;99176.41;5094987;28;20043;-83
2021/06/25 05:49:12;;;;;;;;;;;;;;;15.89;100.00;99189.44;5096248;28;20070;-83
2021/06/25 05:51:39;;;;;;;5.05;3.45;;;;;;;15.87;100.00;99180.59;5071164;28;20035;-82
2021/06/25 05:54:08;;;;;;;4.28;3.40;;;;;;;15.90;100.00;99187.56;5071862;28;20468;-82
2021/06/25 05:56:37;;;;;;;7.13;4.00;;;;;;;15.86;100.00;99175.34;5082927;28;20113;-81
2021/06/25 05:59:04;;;;;;;4.10;3.45;;;;;;;15.84;100.00;99183.78;5084230;28;20054;-81
2021/06/25 06:01:31;;;;;;;5.63;3.85;;;;;;;15.92;100.00;99197.22;5082028;28;20077;-81
2021/06/25 06:03:58;;;;;;;5.75;4.30;;;;;;;15.98;100.00;99178.22;5076877;28;20120;-81
2021/06/25 06:06:25;;;;;;;6.35;4.40;;;;;;;16.04;100.00;99191.88;5071200;28;20148;-81
2021/06/25 06:08:52;;;;;;;7.68;4.60;;;;;;;16.04;100.00;99180.91;5086575;28;20067;-81
2021/06/25 06:11:19;;;;;;;5.82;4.53;;;;;;;15.96;100.00;99177.59;5080593;28;20045;-81
2021/06/25 06:13:47;;;;;;;4.30;3.90;;;;;;;16.03;100.00;99194.84;5070742;28;20421;-81
2021/06/25 06:16:14;;;;;;;5.72;4.85;;;;;;;16.08;100.00;99190.41;5079428;28;20055;-81
2021/06/25 06:18:45;;;;;;;5.97;4.25;;;;;;;16.12;100.00;99193.53;5078443;28;20044;-82
2021/06/25 06:21:13;;;;;;;5.80;4.20;;;;;;;16.19;100.00;99191.59;5074755;28;20131;-81
2021/06/25 06:32:01;;;;;;;6.65;4.40;;;;;;;16.07;100.00;99199.69;5080787;28;20071;-82
2021/06/25 06:34:32;;;;;;;5.82;5.15;;;;;;;16.30;100.00;99206.50;5070818;28;20052;-82
2021/06/25 06:36:59;;;;;;;5.45;4.90;;;;;;;16.53;100.00;99208.66;5071580;28;20041;-82
2021/06/25 06:39:26;;;;;;;8.20;5.38;;;;;;;16.30;100.00;99202.91;5086624;28;20076;-82
2021/06/25 06:41:53;;;;;;;5.85;5.05;;;;;;;16.33;100.00;99214.28;5091049;28;20048;-84
2021/06/25 06:44:21;;;;;;;5.45;4.80;;;;;;;16.30;100.00;99217.47;5101183;28;20075;-84
2021/06/25 06:46:48;;;;;;;7.50;4.68;;;;;;;16.29;100.00;99213.06;5090891;28;20056;-83
2021/06/25 06:49:15;;;;;;;7.80;5.10;;;;;;;16.26;100.00;99214.34;5097929;28;20050;-84
2021/06/25 06:51:42;;;;;;;5.68;4.47;;;;;;;16.22;100.00;99210.34;5092780;28;20513;-83
2021/06/25 06:54:10;;;;;;;5.53;4.45;;;;;;;16.21;100.00;99214.19;5092345;28;20489;-83
2021/06/25 06:56:37;;;;;;;6.97;4.65;;;;;;;16.27;100.00;99205.06;5100612;28;20112;-83
2021/06/25 06:59:06;;;;;;;6.00;4.38;;;;;;;16.23;100.00;99198.31;5101342;28;20056;-83
2021/06/25 07:01:37;;;;;;;5.70;4.28;;;;;;;16.23;100.00;99201.06;5094944;28;20055;-82
2021/06/25 07:04:05;;;;;;;6.38;4.45;;;;;;;16.46;100.00;99210.63;5085799;28;20055;-82
2021/06/25 07:06:32;;;;;;;5.03;4.13;;;;;;;16.48;100.00;99210.41;5106854;28;20104;-83
2021/06/25 07:08:59;;;;;;;5.75;4.65;;;;;;;16.49;100.00;99220.31;5080286;28;20048;-82
2021/06/25 07:11:26;;;;;;;5.30;4.72;;;;;;;16.55;100.00;99214.75;5096299;28;20060;-83
2021/06/25 07:13:53;;;;;;;4.93;3.53;;;;;;;16.50;100.00;99214.59;5094909;28;20075;-83
2021/06/25 07:16:37;;;;;;;6.90;4.53;;;;;;;16.40;100.00;99217.00;5096450;28;20384;-82
2021/06/25 07:19:04;;;;;;;5.03;3.90;;;;;;;16.35;100.00;99234.13;5116380;28;20051;-82
2021/06/25 07:21:31;;;;;;;4.50;3.63;;;;;;;16.24;100.00;99232.06;5108152;28;20472;-82
2021/06/25 07:23:59;;;;;;;5.35;4.15;;;;;;;16.34;100.00;99242.56;5095279;28;20070;-83
2021/06/25 07:26:26;;;;;;;5.30;4.35;;;;;;;16.31;100.00;99230.13;5096225;28;20052;-82
2021/06/25 07:28:55;;;;;;;7.40;5.32;;;;;;;16.41;100.00;99227.75;5095794;28;20113;-81
2021/06/25 07:31:22;;;;;;;6.30;5.45;;;;;;;16.65;99.59;99230.75;5097610;28;20046;-83
2021/06/25 07:33:50;;;;;;;8.20;6.68;;;;;;;16.53;99.46;99238.84;5105288;28;20051;-81
2021/06/25 07:36:17;;;;;;;8.63;7.20;;;;;;;16.54;99.57;99232.28;5095775;28;20081;-81
2021/06/25 07:38:46;;;;;;;10.68;8.65;;;;;;;16.72;99.50;99238.91;5095361;28;20052;-82
2021/06/25 07:41:13;;;;;;;14.32;9.50;;;;;;;16.84;99.33;99236.28;5092808;28;20044;-82
2021/06/25 07:43:39;;;;;;;11.60;8.77;;;;;;;16.81;99.57;99226.59;5086521;28;20048;-82
2021/06/25 07:46:06;;;;;;;10.93;8.45;;;;;;;17.21;98.53;99239.13;5095105;28;20056;-82
2021/06/25 07:48:33;;;;;;;13.23;9.52;;;;;;;17.47;96.02;99243.53;5106492;28;20048;-81
2021/06/25 07:51:03;;;;;;;13.60;9.95;;;;;;;17.70;95.36;99229.09;5110434;28;20134;-82
2021/06/25 07:53:29;;;;;;;13.52;10.57;;;;;;;17.76;93.99;99214.44;5095650;28;20422;-82
2021/06/25 07:55:56;;;;;;;13.48;10.02;;;;;;;17.81;93.49;99228.34;5100024;28;20043;-82
2021/06/25 07:58:23;;;;;;;15.75;10.65;;;;;;;17.94;92.93;99215.50;5096873;28;20048;-82
2021/06/25 08:00:50;;;;;;;13.68;10.05;;;;;;;17.82;90.27;99223.66;5095536;28;20101;-82
2021/06/25 08:03:19;;;;;;;15.15;10.65;;;;;;;18.06;90.23;99235.66;5105383;28;20044;-82
2021/06/25 08:05:48;;;;;;;14.18;10.73;;;;;;;17.91;89.56;99221.47;5100225;28;20058;-83
2021/06/25 08:08:16;;;;;;;14.00;10.65;;;;;;;17.90;91.88;99234.41;5115284;28;20100;-83
2021/06/25 08:10:43;;;;;;;15.77;10.75;;;;;;;17.94;90.48;99218.25;5108328;28;20501;-83
2021/06/25 08:13:10;;;;;;;13.30;10.57;;;;;;;17.95;89.13;99220.78;5095656;28;20052;-82
2021/06/25 08:15:37;;;;;;;15.52;10.77;;;;;;;18.01;89.86;99225.34;5072839;28;20056;-82
2021/06/25 08:18:05;;;;;;;13.45;10.38;;;;;;;18.17;90.10;99226.63;5084055;28;20410;-82
2021/06/25 08:20:32;;;;;;;15.40;10.93;;;;;;;18.17;90.70;99223.88;5112446;28;20051;-82
2021/06/25 08:22:59;;;;;;;16.20;11.35;;;;;;;18.07;88.54;99228.25;5115588;28;20061;-83
2021/06/25 08:25:27;;;;;;;14.95;11.80;;;;;;;18.02;90.03;99220.69;5110893;28;20062;-82
2021/06/25 08:27:55;;;;;;;18.52;13.75;;;;;;;18.20;86.94;99219.81;5094989;28;20055;-81
2021/06/25 08:30:25;;;;;;;19.92;13.18;;;;;;;18.22;87.07;99239.69;5113125;28;20093;-83
2021/06/25 08:32:52;;;;;;;20.75;14.80;;;;;;;18.18;86.43;99235.72;5088805;28;20054;-84
2021/06/25 08:35:19;;;;;;;18.55;13.73;;;;;;;18.06;88.65;99221.91;5094887;28;20063;-83
2021/06/25 08:37:45;;;;;;;22.00;14.55;;;;;;;18.37;88.40;99231.84;5094827;28;20052;-83
2021/06/25 08:40:13;;;;;;;17.23;13.10;;;;;;;18.38;86.37;99238.16;5094741;28;20122;-84
2021/06/25 08:42:41;;;;;;;17.40;13.55;;;;;;;18.29;85.24;99237.69;5094589;28;20094;-83
2021/06/25 08:45:10;;;;;;;20.70;13.77;;;;;;;18.15;88.47;99238.94;5094661;28;20062;-83
2021/06/25 08:47:40;;;;;;;18.10;13.80;;;;;;;18.39;87.46;99234.34;5094036;28;20044;-84
2021/06/25 08:50:09;;;;;;;17.75;13.55;;;;;;;18.49;87.53;99220.03;5074425;28;20134;-83
2021/06/25 08:52:36;;;;;;;21.63;14.07;;;;;;;18.77;87.01;99227.63;5074468;28;20059;-83
2021/06/25 08:55:03;;;;;;;19.73;14.52;;;;;;;18.75;83.47;99221.50;5093640;28;20073;-83
2021/06/25 08:57:33;;;;;;;18.67;12.73;;;;;;;18.67;82.83;99219.94;5090485;28;20048;-83
2021/06/25 09:00:02;;;;;;;16.00;12.35;;;;;;;18.28;85.61;99226.91;5086557;28;20557;-83
2021/06/25 09:02:32;;;;;;;16.40;12.73;;;;;;;18.38;84.90;99214.25;5083205;28;20052;-82
2021/06/25 09:04:59;;;;;;;13.52;10.73;;;;;;;18.42;83.65;99233.88;5093794;28;20127;-82
2021/06/25 09:10:31;;;;;;;14.68;11.57;;;;;;;18.43;82.77;99229.22;5090964;28;20132;-83
2021/06/25 09:13:04;;;;;;;16.10;12.05;;;;;;;18.39;85.65;99239.84;5090019;28;20057;-83
2021/06/25 09:15:39;;;;;;;20.20;11.98;;;;;;;18.37;84.20;99239.25;5071921;28;20052;-83
2021/06/25 09:18:08;;;;;;;15.57;11.45;;;;;;;18.32;84.20;99239.09;5091271;28;20073;-83
2021/06/25 09:20:37;;;;;;;17.70;12.25;;;;;;;18.44;83.95;99247.41;5089780;28;20553;-83
2021/06/25 09:23:06;;;;;;;17.65;12.82;;;;;;;18.39;84.21;99239.84;5087782;28;20044;-82
2021/06/25 09:25:51;;;;;;;16.60;12.15;;;;;;;18.48;84.70;99230.19;5086085;28;20044;-83
2021/06/25 09:28:23;;;;;;;18.10;12.30;;;;;;;18.56;83.75;99237.28;5077824;28;20056;-82
2021/06/25 09:30:51;;;;;;;12.13;9.85;;;;;;;18.56;85.18;99248.28;5073377;28;20063;-83
2021/06/25 09:33:21;;;;;;;9.65;7.40;;;;;;;18.61;85.80;99247.56;5095096;28;20048;-83
2021/06/25 09:38:39;;;;;;;5.95;4.65;;;;;;;17.76;88.05;99241.09;5084825;28;20045;-83
2021/06/25 09:41:17;;;;;;;5.53;3.45;;;;;;;17.61;88.48;99246.97;5083013;28;20071;-82
2021/06/25 09:43:53;;;;;;;7.20;4.00;;;;;;;17.30;89.52;99249.63;5074408;28;20047;-82
2021/06/25 09:46:29;;;;;;;5.13;4.13;;;;;;;17.15;92.08;99249.97;5087621;28;20048;-81
2021/06/25 09:48:59;;;;;;;5.95;4.78;;;;;;;16.90;92.10;99249.16;5089983;28;20062;-81
2021/06/25 09:51:26;;;;;;;6.32;4.53;;;;;;;16.97;92.64;99249.94;5077151;28;20071;-81
2021/06/25 09:54:04;;;;;;;6.32;4.82;;;;;;;16.84;92.54;99239.88;5092424;28;20040;-81
2021/06/25 09:56:32;;;;;;;6.03;4.60;;;;;;;16.95;92.97;99250.16;5081190;28;20056;-81
2021/06/25 09:59:42;;;;;;;11.85;5.30;;;;;;;16.94;92.34;99253.16;5086295;28;20055;-80
2021/06/25 10:02:31;;;;;;;6.93;4.80;;;;;;;17.08;92.45;99267.59;5084716;28;20063;-81
2021/06/25 10:05:02;;;;;;;10.20;4.93;;;;;;;17.08;92.51;99249.19;5087641;28;20044;-80
2021/06/25 10:07:30;;;;;;;6.60;4.68;;;;;;;16.97;92.52;99256.28;5086992;28;20044;-81
2021/06/25 10:09:58;;;;;;;5.82;4.03;;;;;;;16.91;93.06;99276.38;5090576;28;20098;-81
2021/06/25 10:12:25;;;;;;;5.65;4.30;;;;;;;16.76;94.44;99262.13;5090455;28;20059;-81
2021/06/25 10:14:54;;;;;;;6.30;5.22;;;;;;;16.91;95.18;99279.13;5085742;28;20495;-81
2021/06/25 10:17:28;;;;;;;7.82;5.85;;;;;;;16.53;96.16;99266.31;5082165;28;20059;-81
2021/06/25 10:20:05;;;;;;;9.57;5.32;;;;;;;16.67;97.24;99278.03;5090023;28;20040;-80
2021/06/25 10:22:34;;;;;;;8.77;5.47;;;;;;;16.89;98.82;99273.03;5096172;28;20044;-81
2021/06/25 10:25:03;;;;;;;7.38;5.07;;;;;;;17.05;97.30;99277.13;5083676;28;20048;-80
2021/06/25 10:27:34;;;;;;;7.80;5.07;;;;;;;16.92;96.56;99263.50;5086235;28;20143;-79
2021/06/25 10:30:02;;;;;;;6.05;4.95;;;;;;;16.85;97.20;99257.22;5091667;28;20127;-80
2021/06/25 10:32:29;;;;;;;8.30;5.72;;;;;;;17.04;97.48;99274.59;5093104;28;20050;-79
2021/06/25 10:34:59;;;;;;;8.10;6.18;;;;;;;16.93;95.94;99273.41;5092537;28;20048;-80
2021/06/25 10:37:28;;;;;;;8.48;6.22;;;;;;;17.25;95.13;99278.84;5075064;28;20068;-80
2021/06/25 10:39:58;;;;;;;10.07;6.90;;;;;;;17.20;94.40;99274.03;5095003;28;20093;-81
2021/06/25 10:42:41;;;;;;;9.55;7.40;;;;;;;17.08;95.42;99262.94;5088310;28;20044;-82
2021/06/25 10:45:09;;;;;;;11.40;7.82;;;;;;;17.46;96.64;99294.94;5078301;28;20080;-82
2021/06/25 10:47:36;;;;;;;12.95;9.35;;;;;;;17.34;95.28;99275.59;5092511;28;20052;-81
2021/06/25 10:50:31;;;;;;;14.57;10.32;;;;;;;17.29;92.46;99289.16;5099125;28;20051;-82
2021/06/25 10:53:19;;;;;;;21.05;13.20;;;;;;;17.14;93.59;99285.91;5094625;28;20051;-82
2021/06/25 10:56:07;;;;;;;18.75;12.13;;;;;;;17.33;94.39;99287.63;5085717;28;20317;-82
2021/06/25 10:58:34;;;;;;;20.02;12.80;;;;;;;17.32;91.76;99266.72;5090136;28;20127;-81
2021/06/25 11:01:02;;;;;;;20.05;13.02;;;;;;;17.77;90.85;99268.34;5075233;28;20071;-82
2021/06/25 11:03:38;;;;;;;19.23;13.50;;;;;;;18.01;88.95;99285.03;5088567;28;20048;-81
2021/06/25 11:06:55;;;;;;;19.48;13.07;;;;;;;17.93;87.97;99257.84;5093941;28;20074;-83
2021/06/25 11:09:28;;;;;;;19.70;13.07;;;;;;;18.37;87.43;99270.38;5074515;28;20412;-80
2021/06/25 11:12:20;;;;;;;20.20;13.40;;;;;;;18.68;86.52;99278.59;5081239;28;20051;-80
2021/06/25 11:14:47;;;;;;;18.40;11.88;;;;;;;18.84;84.41;99285.34;5091392;28;20526;-81
2021/06/25 11:17:44;;;;;;;17.10;11.75;;;;;;;18.80;82.10;99257.44;5089592;28;20109;-81
2021/06/25 11:20:20;;;;;;;17.58;12.80;;;;;;;18.94;83.12;99271.88;5089593;28;20531;-81
2021/06/25 11:22:58;;;;;;;19.23;11.68;;;;;;;18.90;84.39;99263.22;5089426;28;20548;-81
2021/06/25 11:25:48;;;;;;;20.02;12.93;;;;;;;18.89;82.28;99269.84;5093821;28;20052;-81
2021/06/25 11:28:24;;;;;;;17.33;12.65;;;;;;;19.31;80.65;99259.81;5090901;28;20415;-81
2021/06/25 11:31:00;;;;;;;19.90;14.38;;;;;;;19.32;79.67;99269.75;5095907;28;20123;-80
2021/06/25 11:33:30;;;;;;;20.45;12.88;;;;;;;19.20;79.67;99256.78;5094959;28;20097;-80
2021/06/25 11:36:15;;;;;;;15.55;12.85;;;;;;;19.59;80.97;99256.31;5094420;28;20101;-81
2021/06/25 11:38:58;;;;;;;19.25;13.63;;;;;;;20.17;76.71;99257.25;5094626;28;20089;-81
2021/06/25 11:41:27;;;;;;;14.82;11.65;;;;;;;20.22;77.94;99268.41;5110501;28;20052;-80
2021/06/25 11:43:55;;;;;;;16.73;10.43;;;;;;;19.78;79.16;99273.56;5098792;28;20047;-82
2021/06/25 11:46:22;;;;;;;14.50;10.30;;;;;;;19.70;77.75;99265.63;5109283;28;20048;-82
2021/06/25 11:48:50;;;;;;;14.20;10.52;;;;;;;19.91;78.67;99255.91;5111291;28;20097;-80